sensor_id;sensor_type;location;lat;lon;timestamp;temperature;humidity
837;DHT22;400;53.550;9.932;2023-03-01T00:00:17;4.40;99.90
837;DHT22;400;53.550;9.932;2023-03-01T00:02:47;4.40;99.90
837;DHT22;400;53.550;9.932;2023-03-01T00:05:14;4.40;99.90
837;DHT22;400;53.550;9.932;2023-03-01T00:07:41;4.40;99.90
837;DHT22;400;53.550;9.932;2023-03-01T00:10:10;4.40;99.90
837;DHT22;400;53.550;9.932;2023-03-01T00:12:38;4.30;99.90
837;DHT22;400;53.550;9.932;2023-03-01T00:15:06;4.30;99.90
837;DHT22;400;53.550;9.932;2023-03-01T00:17:33;4.30;99.90
837;DHT22;400;53.550;9.932;2023-03-01T00:20:00;4.30;99.90
837;DHT22;400;53.550;9.932;2023-03-01T00:22:27;4.30;99.90
837;DHT22;400;53.550;9.932;2023-03-01T00:24:55;4.30;99.90
837;DHT22;400;53.550;9.932;2023-03-01T00:27:23;4.30;99.90
837;DHT22;400;53.550;9.932;2023-03-01T00:29:55;4.20;99.90
837;DHT22;400;53.550;9.932;2023-03-01T00:32:24;4.20;99.90
837;DHT22;400;53.550;9.932;2023-03-01T00:34:51;4.20;99.90
837;DHT22;400;53.550;9.932;2023-03-01T00:37:20;4.30;99.90
837;DHT22;400;53.550;9.932;2023-03-01T00:39:47;4.20;99.90
837;DHT22;400;53.550;9.932;2023-03-01T00:42:14;4.20;99.90
837;DHT22;400;53.550;9.932;2023-03-01T00:44:41;4.20;99.90
837;DHT22;400;53.550;9.932;2023-03-01T00:47:10;4.20;99.90
837;DHT22;400;53.550;9.932;2023-03-01T00:49:36;4.20;99.90
837;DHT22;400;53.550;9.932;2023-03-01T00:52:03;4.10;99.90
837;DHT22;400;53.550;9.932;2023-03-01T00:54:30;4.10;99.90
837;DHT22;400;53.550;9.932;2023-03-01T00:56:57;4.00;99.90
837;DHT22;400;53.550;9.932;2023-03-01T00:59:24;4.00;99.90
837;DHT22;400;53.550;9.932;2023-03-01T01:01:51;4.00;99.90
837;DHT22;400;53.550;9.932;2023-03-01T01:04:19;3.90;99.90
837;DHT22;400;53.550;9.932;2023-03-01T01:06:46;3.80;99.90
837;DHT22;400;53.550;9.932;2023-03-01T01:09:15;3.70;99.90
837;DHT22;400;53.550;9.932;2023-03-01T01:11:44;3.80;99.90
837;DHT22;400;53.550;9.932;2023-03-01T01:14:11;3.90;99.90
837;DHT22;400;53.550;9.932;2023-03-01T01:16:38;3.90;99.90
837;DHT22;400;53.550;9.932;2023-03-01T01:19:05;4.00;99.90
837;DHT22;400;53.550;9.932;2023-03-01T01:21:33;3.80;99.90
837;DHT22;400;53.550;9.932;2023-03-01T01:24:00;3.90;99.90
837;DHT22;400;53.550;9.932;2023-03-01T01:26:28;3.90;99.90
837;DHT22;400;53.550;9.932;2023-03-01T01:28:56;3.90;99.90
837;DHT22;400;53.550;9.932;2023-03-01T01:31:24;3.80;99.90
837;DHT22;400;53.550;9.932;2023-03-01T01:33:51;3.80;99.90
837;DHT22;400;53.550;9.932;2023-03-01T01:36:20;3.80;99.90
837;DHT22;400;53.550;9.932;2023-03-01T01:38:49;3.80;99.90
837;DHT22;400;53.550;9.932;2023-03-01T01:41:17;3.80;99.90
837;DHT22;400;53.550;9.932;2023-03-01T01:43:46;3.90;99.90
837;DHT22;400;53.550;9.932;2023-03-01T01:46:20;3.90;99.90
837;DHT22;400;53.550;9.932;2023-03-01T01:48:52;3.80;99.90
837;DHT22;400;53.550;9.932;2023-03-01T01:51:23;3.90;99.90
837;DHT22;400;53.550;9.932;2023-03-01T01:53:58;3.90;99.90
837;DHT22;400;53.550;9.932;2023-03-01T01:56:29;3.80;99.90
837;DHT22;400;53.550;9.932;2023-03-01T01:58:57;3.80;99.90
837;DHT22;400;53.550;9.932;2023-03-01T02:01:24;3.80;99.90
837;DHT22;400;53.550;9.932;2023-03-01T02:03:52;3.70;99.90
837;DHT22;400;53.550;9.932;2023-03-01T02:06:21;3.60;99.90
837;DHT22;400;53.550;9.932;2023-03-01T02:08:59;3.50;99.90
837;DHT22;400;53.550;9.932;2023-03-01T02:11:27;3.60;99.90
837;DHT22;400;53.550;9.932;2023-03-01T02:13:56;3.50;99.90
837;DHT22;400;53.550;9.932;2023-03-01T02:16:23;3.60;99.90
837;DHT22;400;53.550;9.932;2023-03-01T02:18:50;3.60;99.90
837;DHT22;400;53.550;9.932;2023-03-01T02:21:31;3.60;99.90
837;DHT22;400;53.550;9.932;2023-03-01T02:24:07;3.60;99.90
837;DHT22;400;53.550;9.932;2023-03-01T02:26:41;3.60;99.90
837;DHT22;400;53.550;9.932;2023-03-01T02:29:13;3.70;99.90
837;DHT22;400;53.550;9.932;2023-03-01T02:31:39;3.60;99.90
837;DHT22;400;53.550;9.932;2023-03-01T02:34:10;3.50;99.90
837;DHT22;400;53.550;9.932;2023-03-01T02:36:40;3.40;99.90
837;DHT22;400;53.550;9.932;2023-03-01T02:39:11;3.40;99.90
837;DHT22;400;53.550;9.932;2023-03-01T02:41:44;3.40;99.90
837;DHT22;400;53.550;9.932;2023-03-01T02:44:14;3.40;99.90
837;DHT22;400;53.550;9.932;2023-03-01T02:46:47;3.30;99.90
837;DHT22;400;53.550;9.932;2023-03-01T02:49:23;3.40;99.90
837;DHT22;400;53.550;9.932;2023-03-01T02:52:21;3.40;99.90
837;DHT22;400;53.550;9.932;2023-03-01T02:54:54;3.40;99.90
837;DHT22;400;53.550;9.932;2023-03-01T02:57:23;3.50;99.90
837;DHT22;400;53.550;9.932;2023-03-01T02:59:55;3.50;99.90
837;DHT22;400;53.550;9.932;2023-03-01T03:02:24;3.40;99.90
837;DHT22;400;53.550;9.932;2023-03-01T03:05:03;3.40;99.90
837;DHT22;400;53.550;9.932;2023-03-01T03:07:33;3.30;99.90
837;DHT22;400;53.550;9.932;2023-03-01T03:10:01;3.40;99.90
837;DHT22;400;53.550;9.932;2023-03-01T03:12:27;3.50;99.90
837;DHT22;400;53.550;9.932;2023-03-01T03:14:56;3.50;99.90
837;DHT22;400;53.550;9.932;2023-03-01T03:17:23;3.50;99.90
837;DHT22;400;53.550;9.932;2023-03-01T03:19:49;3.50;99.90
837;DHT22;400;53.550;9.932;2023-03-01T03:22:16;3.50;99.90
837;DHT22;400;53.550;9.932;2023-03-01T03:24:43;3.50;99.90
837;DHT22;400;53.550;9.932;2023-03-01T03:27:10;3.50;99.90
837;DHT22;400;53.550;9.932;2023-03-01T03:29:37;3.50;99.90
837;DHT22;400;53.550;9.932;2023-03-01T03:32:05;3.50;99.90
837;DHT22;400;53.550;9.932;2023-03-01T03:34:32;3.50;99.90
837;DHT22;400;53.550;9.932;2023-03-01T03:36:59;3.50;99.90
837;DHT22;400;53.550;9.932;2023-03-01T03:39:26;3.50;99.90
837;DHT22;400;53.550;9.932;2023-03-01T03:41:54;3.40;99.90
837;DHT22;400;53.550;9.932;2023-03-01T03:44:21;3.40;99.90
837;DHT22;400;53.550;9.932;2023-03-01T03:46:48;3.50;99.90
837;DHT22;400;53.550;9.932;2023-03-01T03:49:16;3.50;99.90
837;DHT22;400;53.550;9.932;2023-03-01T03:51:45;3.40;99.90
837;DHT22;400;53.550;9.932;2023-03-01T03:54:12;3.40;99.90
837;DHT22;400;53.550;9.932;2023-03-01T03:56:38;3.40;99.90
837;DHT22;400;53.550;9.932;2023-03-01T03:59:05;3.40;99.90
837;DHT22;400;53.550;9.932;2023-03-01T04:01:32;3.50;99.90
837;DHT22;400;53.550;9.932;2023-03-01T04:03:59;3.60;99.90
837;DHT22;400;53.550;9.932;2023-03-01T04:06:33;3.70;99.90
837;DHT22;400;53.550;9.932;2023-03-01T04:09:03;3.70;99.90
837;DHT22;400;53.550;9.932;2023-03-01T04:11:30;3.80;99.90
837;DHT22;400;53.550;9.932;2023-03-01T04:14:00;3.90;99.90
837;DHT22;400;53.550;9.932;2023-03-01T04:16:26;4.00;99.90
837;DHT22;400;53.550;9.932;2023-03-01T04:18:53;4.10;99.90
837;DHT22;400;53.550;9.932;2023-03-01T04:21:21;4.10;99.90
837;DHT22;400;53.550;9.932;2023-03-01T04:23:49;3.90;99.90
837;DHT22;400;53.550;9.932;2023-03-01T04:26:18;3.90;99.90
837;DHT22;400;53.550;9.932;2023-03-01T04:28:44;3.80;99.90
837;DHT22;400;53.550;9.932;2023-03-01T04:31:16;3.90;99.90
837;DHT22;400;53.550;9.932;2023-03-01T04:33:45;4.00;99.90
837;DHT22;400;53.550;9.932;2023-03-01T04:36:13;4.10;99.90
837;DHT22;400;53.550;9.932;2023-03-01T04:38:40;4.10;99.90
837;DHT22;400;53.550;9.932;2023-03-01T04:41:10;4.10;99.90
837;DHT22;400;53.550;9.932;2023-03-01T04:43:37;4.10;99.90
837;DHT22;400;53.550;9.932;2023-03-01T04:46:06;4.20;99.90
837;DHT22;400;53.550;9.932;2023-03-01T04:48:34;4.00;99.90
837;DHT22;400;53.550;9.932;2023-03-01T04:51:02;3.80;99.90
837;DHT22;400;53.550;9.932;2023-03-01T04:53:30;3.80;99.90
837;DHT22;400;53.550;9.932;2023-03-01T04:55:58;3.90;99.90
837;DHT22;400;53.550;9.932;2023-03-01T04:58:27;4.00;99.90
837;DHT22;400;53.550;9.932;2023-03-01T05:00:55;4.10;99.90
837;DHT22;400;53.550;9.932;2023-03-01T05:03:22;4.20;99.90
837;DHT22;400;53.550;9.932;2023-03-01T05:05:51;4.00;99.90
837;DHT22;400;53.550;9.932;2023-03-01T05:08:18;3.80;99.90
837;DHT22;400;53.550;9.932;2023-03-01T05:10:49;3.90;99.90
837;DHT22;400;53.550;9.932;2023-03-01T05:13:17;3.90;99.90
837;DHT22;400;53.550;9.932;2023-03-01T05:15:49;4.00;99.90
837;DHT22;400;53.550;9.932;2023-03-01T05:18:20;4.00;99.90
837;DHT22;400;53.550;9.932;2023-03-01T05:20:51;4.00;99.90
837;DHT22;400;53.550;9.932;2023-03-01T05:23:18;4.00;99.90
837;DHT22;400;53.550;9.932;2023-03-01T05:25:45;4.00;99.90
837;DHT22;400;53.550;9.932;2023-03-01T05:28:12;3.90;99.90
837;DHT22;400;53.550;9.932;2023-03-01T05:30:39;3.90;99.90
837;DHT22;400;53.550;9.932;2023-03-01T05:33:08;4.00;99.90
837;DHT22;400;53.550;9.932;2023-03-01T05:35:39;4.10;99.90
837;DHT22;400;53.550;9.932;2023-03-01T05:38:07;4.10;99.90
837;DHT22;400;53.550;9.932;2023-03-01T05:40:34;4.20;99.90
837;DHT22;400;53.550;9.932;2023-03-01T05:43:01;4.20;99.90
837;DHT22;400;53.550;9.932;2023-03-01T05:45:31;4.10;99.90
837;DHT22;400;53.550;9.932;2023-03-01T05:47:59;4.10;99.90
837;DHT22;400;53.550;9.932;2023-03-01T05:50:29;4.10;99.90
837;DHT22;400;53.550;9.932;2023-03-01T05:52:58;4.10;99.90
837;DHT22;400;53.550;9.932;2023-03-01T05:55:27;4.10;99.90
837;DHT22;400;53.550;9.932;2023-03-01T05:57:54;4.20;99.90
837;DHT22;400;53.550;9.932;2023-03-01T06:00:21;4.30;99.90
837;DHT22;400;53.550;9.932;2023-03-01T06:02:48;4.30;99.90
837;DHT22;400;53.550;9.932;2023-03-01T06:05:16;4.30;99.90
837;DHT22;400;53.550;9.932;2023-03-01T06:07:44;4.30;99.90
837;DHT22;400;53.550;9.932;2023-03-01T06:10:12;4.30;99.90
837;DHT22;400;53.550;9.932;2023-03-01T06:12:40;4.40;99.90
837;DHT22;400;53.550;9.932;2023-03-01T06:15:08;4.30;99.90
837;DHT22;400;53.550;9.932;2023-03-01T06:17:38;4.10;99.90
837;DHT22;400;53.550;9.932;2023-03-01T06:20:10;4.10;99.90
837;DHT22;400;53.550;9.932;2023-03-01T06:22:38;4.20;99.90
837;DHT22;400;53.550;9.932;2023-03-01T06:25:08;4.30;99.90
837;DHT22;400;53.550;9.932;2023-03-01T06:27:35;4.20;99.90
837;DHT22;400;53.550;9.932;2023-03-01T06:30:03;4.20;99.90
837;DHT22;400;53.550;9.932;2023-03-01T06:32:32;4.30;99.90
837;DHT22;400;53.550;9.932;2023-03-01T06:34:59;4.30;99.90
837;DHT22;400;53.550;9.932;2023-03-01T06:37:28;4.40;99.90
837;DHT22;400;53.550;9.932;2023-03-01T06:39:54;4.10;99.90
837;DHT22;400;53.550;9.932;2023-03-01T06:42:23;4.10;99.90
837;DHT22;400;53.550;9.932;2023-03-01T06:44:49;4.20;99.90
837;DHT22;400;53.550;9.932;2023-03-01T06:47:16;4.30;99.90
837;DHT22;400;53.550;9.932;2023-03-01T06:49:44;4.40;99.90
837;DHT22;400;53.550;9.932;2023-03-01T06:52:10;4.50;99.90
837;DHT22;400;53.550;9.932;2023-03-01T06:54:40;4.50;99.90
837;DHT22;400;53.550;9.932;2023-03-01T06:57:07;4.60;99.90
837;DHT22;400;53.550;9.932;2023-03-01T06:59:35;4.60;99.90
837;DHT22;400;53.550;9.932;2023-03-01T07:02:03;4.60;99.90
837;DHT22;400;53.550;9.932;2023-03-01T07:04:31;4.50;99.90
837;DHT22;400;53.550;9.932;2023-03-01T07:07:00;4.60;99.90
837;DHT22;400;53.550;9.932;2023-03-01T07:09:28;4.50;99.90
837;DHT22;400;53.550;9.932;2023-03-01T07:11:56;4.30;99.90
837;DHT22;400;53.550;9.932;2023-03-01T07:14:23;4.20;99.90
837;DHT22;400;53.550;9.932;2023-03-01T07:16:56;4.10;99.90
837;DHT22;400;53.550;9.932;2023-03-01T07:19:35;4.20;99.90
837;DHT22;400;53.550;9.932;2023-03-01T07:22:04;4.40;99.90
837;DHT22;400;53.550;9.932;2023-03-01T07:24:33;4.30;99.90
837;DHT22;400;53.550;9.932;2023-03-01T07:27:00;4.40;99.90
837;DHT22;400;53.550;9.932;2023-03-01T07:29:27;4.50;99.90
837;DHT22;400;53.550;9.932;2023-03-01T07:31:56;4.60;99.90
837;DHT22;400;53.550;9.932;2023-03-01T07:34:23;4.50;99.90
837;DHT22;400;53.550;9.932;2023-03-01T07:36:50;4.40;99.90
837;DHT22;400;53.550;9.932;2023-03-01T07:39:17;4.40;99.90
837;DHT22;400;53.550;9.932;2023-03-01T07:41:44;4.40;99.90
837;DHT22;400;53.550;9.932;2023-03-01T07:44:11;4.50;99.90
837;DHT22;400;53.550;9.932;2023-03-01T07:46:38;4.60;99.90
837;DHT22;400;53.550;9.932;2023-03-01T07:49:06;4.70;99.90
837;DHT22;400;53.550;9.932;2023-03-01T07:51:35;4.80;99.90
837;DHT22;400;53.550;9.932;2023-03-01T07:54:02;4.90;99.90
837;DHT22;400;53.550;9.932;2023-03-01T07:56:33;4.90;99.90
837;DHT22;400;53.550;9.932;2023-03-01T07:59:03;5.00;99.90
837;DHT22;400;53.550;9.932;2023-03-01T08:01:31;5.00;99.90
837;DHT22;400;53.550;9.932;2023-03-01T08:04:02;4.80;99.90
837;DHT22;400;53.550;9.932;2023-03-01T08:06:40;4.80;99.90
837;DHT22;400;53.550;9.932;2023-03-01T08:09:11;4.80;99.90
837;DHT22;400;53.550;9.932;2023-03-01T08:11:41;4.70;99.90
837;DHT22;400;53.550;9.932;2023-03-01T08:14:07;4.70;99.90
837;DHT22;400;53.550;9.932;2023-03-01T08:16:36;4.80;99.90
837;DHT22;400;53.550;9.932;2023-03-01T08:19:06;4.90;99.90
837;DHT22;400;53.550;9.932;2023-03-01T08:21:34;5.00;99.90
837;DHT22;400;53.550;9.932;2023-03-01T08:24:03;5.00;99.90
837;DHT22;400;53.550;9.932;2023-03-01T08:26:32;5.00;99.90
837;DHT22;400;53.550;9.932;2023-03-01T08:29:03;5.10;99.90
837;DHT22;400;53.550;9.932;2023-03-01T08:31:33;5.20;99.90
837;DHT22;400;53.550;9.932;2023-03-01T08:34:04;5.20;99.90
837;DHT22;400;53.550;9.932;2023-03-01T08:36:34;5.20;99.90
837;DHT22;400;53.550;9.932;2023-03-01T08:39:04;5.20;99.90
837;DHT22;400;53.550;9.932;2023-03-01T08:41:32;5.30;99.90
837;DHT22;400;53.550;9.932;2023-03-01T08:44:03;5.30;99.90
837;DHT22;400;53.550;9.932;2023-03-01T08:46:36;5.40;99.90
837;DHT22;400;53.550;9.932;2023-03-01T08:49:07;5.50;99.90
837;DHT22;400;53.550;9.932;2023-03-01T08:51:35;5.50;99.90
837;DHT22;400;53.550;9.932;2023-03-01T08:57:30;5.60;99.90
837;DHT22;400;53.550;9.932;2023-03-01T09:00:03;5.70;99.90
837;DHT22;400;53.550;9.932;2023-03-01T09:02:35;5.80;99.90
837;DHT22;400;53.550;9.932;2023-03-01T09:05:05;5.90;99.90
837;DHT22;400;53.550;9.932;2023-03-01T09:07:34;5.90;99.90
837;DHT22;400;53.550;9.932;2023-03-01T09:10:05;5.90;99.90
837;DHT22;400;53.550;9.932;2023-03-01T09:12:32;5.80;99.90
837;DHT22;400;53.550;9.932;2023-03-01T09:14:59;6.00;99.90
837;DHT22;400;53.550;9.932;2023-03-01T09:17:26;6.00;99.90
837;DHT22;400;53.550;9.932;2023-03-01T09:19:53;6.20;99.90
837;DHT22;400;53.550;9.932;2023-03-01T09:22:20;6.20;99.90
837;DHT22;400;53.550;9.932;2023-03-01T09:24:48;6.20;99.90
837;DHT22;400;53.550;9.932;2023-03-01T09:27:16;6.30;99.90
837;DHT22;400;53.550;9.932;2023-03-01T09:29:45;6.40;99.90
837;DHT22;400;53.550;9.932;2023-03-01T09:32:12;6.50;99.90
837;DHT22;400;53.550;9.932;2023-03-01T09:34:39;6.60;99.90
837;DHT22;400;53.550;9.932;2023-03-01T09:37:20;6.70;99.90
837;DHT22;400;53.550;9.932;2023-03-01T09:39:48;6.60;99.90
837;DHT22;400;53.550;9.932;2023-03-01T09:42:16;6.70;99.90
837;DHT22;400;53.550;9.932;2023-03-01T09:44:47;6.60;99.90
837;DHT22;400;53.550;9.932;2023-03-01T09:47:20;6.70;99.90
837;DHT22;400;53.550;9.932;2023-03-01T09:50:01;6.80;99.90
837;DHT22;400;53.550;9.932;2023-03-01T09:52:34;6.90;99.90
837;DHT22;400;53.550;9.932;2023-03-01T09:55:09;6.90;99.90
837;DHT22;400;53.550;9.932;2023-03-01T09:57:47;6.90;99.90
837;DHT22;400;53.550;9.932;2023-03-01T10:00:31;7.00;99.90
837;DHT22;400;53.550;9.932;2023-03-01T10:03:14;7.00;99.90
837;DHT22;400;53.550;9.932;2023-03-01T10:05:53;7.00;99.90
837;DHT22;400;53.550;9.932;2023-03-01T10:08:31;7.00;99.90
837;DHT22;400;53.550;9.932;2023-03-01T10:11:01;7.00;99.90
837;DHT22;400;53.550;9.932;2023-03-01T10:13:37;6.80;99.90
837;DHT22;400;53.550;9.932;2023-03-01T10:16:11;6.70;99.90
837;DHT22;400;53.550;9.932;2023-03-01T10:18:47;6.70;99.90
837;DHT22;400;53.550;9.932;2023-03-01T10:21:19;6.70;99.90
837;DHT22;400;53.550;9.932;2023-03-01T10:23:46;6.30;99.90
837;DHT22;400;53.550;9.932;2023-03-01T10:26:29;6.40;99.90
837;DHT22;400;53.550;9.932;2023-03-01T10:29:02;6.60;99.90
837;DHT22;400;53.550;9.932;2023-03-01T10:31:37;6.80;99.90
837;DHT22;400;53.550;9.932;2023-03-01T10:34:08;6.90;99.90
837;DHT22;400;53.550;9.932;2023-03-01T10:36:39;6.70;99.90
837;DHT22;400;53.550;9.932;2023-03-01T10:39:13;6.60;99.90
837;DHT22;400;53.550;9.932;2023-03-01T10:41:53;6.70;99.90
837;DHT22;400;53.550;9.932;2023-03-01T10:44:43;6.90;99.90
837;DHT22;400;53.550;9.932;2023-03-01T10:47:19;7.10;99.90
837;DHT22;400;53.550;9.932;2023-03-01T10:49:56;7.20;99.90
837;DHT22;400;53.550;9.932;2023-03-01T10:52:32;7.20;99.90
837;DHT22;400;53.550;9.932;2023-03-01T10:55:02;7.20;99.90
837;DHT22;400;53.550;9.932;2023-03-01T10:57:34;7.20;99.90
837;DHT22;400;53.550;9.932;2023-03-01T11:00:26;7.20;99.90
837;DHT22;400;53.550;9.932;2023-03-01T11:03:11;7.20;99.90
837;DHT22;400;53.550;9.932;2023-03-01T11:05:52;7.10;99.90
837;DHT22;400;53.550;9.932;2023-03-01T11:08:32;7.10;99.90
837;DHT22;400;53.550;9.932;2023-03-01T11:11:19;6.90;99.90
837;DHT22;400;53.550;9.932;2023-03-01T11:13:55;6.80;99.90
837;DHT22;400;53.550;9.932;2023-03-01T11:16:32;7.00;99.90
837;DHT22;400;53.550;9.932;2023-03-01T11:19:20;7.00;99.90
837;DHT22;400;53.550;9.932;2023-03-01T11:21:55;6.90;99.90
837;DHT22;400;53.550;9.932;2023-03-01T11:24:31;6.90;99.90
837;DHT22;400;53.550;9.932;2023-03-01T11:27:07;7.00;99.90
837;DHT22;400;53.550;9.932;2023-03-01T11:29:40;7.20;99.90
837;DHT22;400;53.550;9.932;2023-03-01T11:32:13;7.40;99.90
837;DHT22;400;53.550;9.932;2023-03-01T11:34:43;7.40;99.90
837;DHT22;400;53.550;9.932;2023-03-01T11:37:21;7.50;99.90
837;DHT22;400;53.550;9.932;2023-03-01T11:39:57;7.60;99.90
837;DHT22;400;53.550;9.932;2023-03-01T11:42:37;7.70;99.90
837;DHT22;400;53.550;9.932;2023-03-01T11:45:09;7.80;99.90
837;DHT22;400;53.550;9.932;2023-03-01T11:47:55;7.80;99.90
837;DHT22;400;53.550;9.932;2023-03-01T11:50:30;7.90;99.90
837;DHT22;400;53.550;9.932;2023-03-01T11:53:24;7.90;99.90
837;DHT22;400;53.550;9.932;2023-03-01T11:56:06;7.90;99.90
837;DHT22;400;53.550;9.932;2023-03-01T11:58:51;8.00;99.90
837;DHT22;400;53.550;9.932;2023-03-01T12:01:30;8.00;99.90
837;DHT22;400;53.550;9.932;2023-03-01T12:04:20;7.90;99.90
837;DHT22;400;53.550;9.932;2023-03-01T12:06:57;8.00;99.90
837;DHT22;400;53.550;9.932;2023-03-01T12:09:44;8.10;99.90
837;DHT22;400;53.550;9.932;2023-03-01T12:12:30;8.20;99.90
837;DHT22;400;53.550;9.932;2023-03-01T12:18:17;8.40;99.90
837;DHT22;400;53.550;9.932;2023-03-01T12:20:54;8.50;99.90
837;DHT22;400;53.550;9.932;2023-03-01T12:23:48;8.50;99.90
837;DHT22;400;53.550;9.932;2023-03-01T12:26:27;8.60;99.90
837;DHT22;400;53.550;9.932;2023-03-01T12:29:07;8.60;99.90
837;DHT22;400;53.550;9.932;2023-03-01T12:31:53;8.70;99.90
837;DHT22;400;53.550;9.932;2023-03-01T12:34:43;8.70;99.90
837;DHT22;400;53.550;9.932;2023-03-01T12:37:21;8.70;99.90
837;DHT22;400;53.550;9.932;2023-03-01T12:40:03;8.80;99.90
837;DHT22;400;53.550;9.932;2023-03-01T12:42:43;8.80;99.90
837;DHT22;400;53.550;9.932;2023-03-01T12:45:32;8.80;99.90
837;DHT22;400;53.550;9.932;2023-03-01T12:48:15;8.90;99.90
837;DHT22;400;53.550;9.932;2023-03-01T12:50:47;8.90;99.90
837;DHT22;400;53.550;9.932;2023-03-01T12:53:24;8.80;99.90
837;DHT22;400;53.550;9.932;2023-03-01T12:55:55;8.80;99.90
837;DHT22;400;53.550;9.932;2023-03-01T12:58:32;8.80;99.90
837;DHT22;400;53.550;9.932;2023-03-01T13:01:08;8.70;99.90
837;DHT22;400;53.550;9.932;2023-03-01T13:06:59;8.60;99.90
837;DHT22;400;53.550;9.932;2023-03-01T13:09:40;8.60;99.90
837;DHT22;400;53.550;9.932;2023-03-01T13:12:50;8.80;99.90
837;DHT22;400;53.550;9.932;2023-03-01T13:15:28;8.80;99.90
837;DHT22;400;53.550;9.932;2023-03-01T13:18:01;8.90;99.90
837;DHT22;400;53.550;9.932;2023-03-01T13:20:34;8.80;99.90
837;DHT22;400;53.550;9.932;2023-03-01T13:23:25;8.80;99.90
837;DHT22;400;53.550;9.932;2023-03-01T13:26:12;8.70;99.90
837;DHT22;400;53.550;9.932;2023-03-01T13:28:48;8.80;99.90
837;DHT22;400;53.550;9.932;2023-03-01T13:34:46;8.80;99.90
837;DHT22;400;53.550;9.932;2023-03-01T13:37:21;8.70;99.90
837;DHT22;400;53.550;9.932;2023-03-01T13:39:48;8.80;99.90
837;DHT22;400;53.550;9.932;2023-03-01T13:42:38;8.70;99.90
837;DHT22;400;53.550;9.932;2023-03-01T13:45:17;8.60;99.90
837;DHT22;400;53.550;9.932;2023-03-01T13:47:52;8.80;99.90
837;DHT22;400;53.550;9.932;2023-03-01T13:50:23;8.80;99.90
837;DHT22;400;53.550;9.932;2023-03-01T13:52:55;8.80;99.90
837;DHT22;400;53.550;9.932;2023-03-01T13:55:30;8.80;99.90
837;DHT22;400;53.550;9.932;2023-03-01T13:58:04;8.80;99.90
837;DHT22;400;53.550;9.932;2023-03-01T14:00:36;8.90;99.90
837;DHT22;400;53.550;9.932;2023-03-01T14:03:08;8.90;99.90
837;DHT22;400;53.550;9.932;2023-03-01T14:05:36;8.80;99.90
837;DHT22;400;53.550;9.932;2023-03-01T14:08:03;8.90;99.90
837;DHT22;400;53.550;9.932;2023-03-01T14:10:36;8.90;99.90
837;DHT22;400;53.550;9.932;2023-03-01T14:13:23;8.90;99.90
837;DHT22;400;53.550;9.932;2023-03-01T14:16:06;8.90;99.90
837;DHT22;400;53.550;9.932;2023-03-01T14:18:41;8.80;99.90
837;DHT22;400;53.550;9.932;2023-03-01T14:21:14;8.80;99.90
837;DHT22;400;53.550;9.932;2023-03-01T14:23:42;8.80;99.90
837;DHT22;400;53.550;9.932;2023-03-01T14:26:09;8.80;99.90
837;DHT22;400;53.550;9.932;2023-03-01T14:28:41;8.70;99.90
837;DHT22;400;53.550;9.932;2023-03-01T14:34:24;8.70;99.90
837;DHT22;400;53.550;9.932;2023-03-01T14:36:55;8.80;99.90
837;DHT22;400;53.550;9.932;2023-03-01T14:39:27;8.80;99.90
837;DHT22;400;53.550;9.932;2023-03-01T14:41:56;8.80;99.90
837;DHT22;400;53.550;9.932;2023-03-01T14:44:28;8.70;99.90
837;DHT22;400;53.550;9.932;2023-03-01T14:47:01;8.80;99.90
837;DHT22;400;53.550;9.932;2023-03-01T14:49:32;8.60;99.90
837;DHT22;400;53.550;9.932;2023-03-01T14:52:04;8.60;99.90
837;DHT22;400;53.550;9.932;2023-03-01T14:54:41;8.70;99.90
837;DHT22;400;53.550;9.932;2023-03-01T14:57:15;8.70;99.90
837;DHT22;400;53.550;9.932;2023-03-01T14:59:44;8.80;99.90
837;DHT22;400;53.550;9.932;2023-03-01T15:02:14;8.80;99.90
837;DHT22;400;53.550;9.932;2023-03-01T15:04:43;8.80;99.90
837;DHT22;400;53.550;9.932;2023-03-01T15:07:14;8.70;99.90
837;DHT22;400;53.550;9.932;2023-03-01T15:09:45;8.70;99.90
837;DHT22;400;53.550;9.932;2023-03-01T15:12:34;8.60;99.90
837;DHT22;400;53.550;9.932;2023-03-01T15:15:35;8.60;99.90
837;DHT22;400;53.550;9.932;2023-03-01T15:18:11;8.70;99.90
837;DHT22;400;53.550;9.932;2023-03-01T15:20:39;8.70;99.90
837;DHT22;400;53.550;9.932;2023-03-01T15:23:21;8.70;99.90
837;DHT22;400;53.550;9.932;2023-03-01T15:25:51;8.70;99.90
837;DHT22;400;53.550;9.932;2023-03-01T15:28:25;8.70;99.90
837;DHT22;400;53.550;9.932;2023-03-01T15:30:56;8.70;99.90
837;DHT22;400;53.550;9.932;2023-03-01T15:33:34;8.70;99.90
837;DHT22;400;53.550;9.932;2023-03-01T15:38:54;8.70;99.90
837;DHT22;400;53.550;9.932;2023-03-01T15:41:24;8.50;99.90
837;DHT22;400;53.550;9.932;2023-03-01T15:43:52;8.50;99.90
837;DHT22;400;53.550;9.932;2023-03-01T15:46:28;8.50;99.90
837;DHT22;400;53.550;9.932;2023-03-01T15:48:57;8.50;99.90
837;DHT22;400;53.550;9.932;2023-03-01T15:51:31;8.50;99.90
837;DHT22;400;53.550;9.932;2023-03-01T15:54:02;8.50;99.90
837;DHT22;400;53.550;9.932;2023-03-01T15:56:35;8.50;99.90
837;DHT22;400;53.550;9.932;2023-03-01T15:59:08;8.50;99.90
837;DHT22;400;53.550;9.932;2023-03-01T16:01:42;8.50;99.90
837;DHT22;400;53.550;9.932;2023-03-01T16:04:12;8.40;99.90
837;DHT22;400;53.550;9.932;2023-03-01T16:06:48;8.40;99.90
837;DHT22;400;53.550;9.932;2023-03-01T16:09:22;8.40;99.90
837;DHT22;400;53.550;9.932;2023-03-01T16:11:52;8.40;99.90
837;DHT22;400;53.550;9.932;2023-03-01T16:14:19;8.40;99.90
837;DHT22;400;53.550;9.932;2023-03-01T16:16:48;8.30;99.90
837;DHT22;400;53.550;9.932;2023-03-01T16:19:16;8.30;99.90
837;DHT22;400;53.550;9.932;2023-03-01T16:21:50;8.20;99.90
837;DHT22;400;53.550;9.932;2023-03-01T16:24:21;8.10;99.90
837;DHT22;400;53.550;9.932;2023-03-01T16:26:53;8.10;99.90
837;DHT22;400;53.550;9.932;2023-03-01T16:29:29;8.00;99.90
837;DHT22;400;53.550;9.932;2023-03-01T16:32:05;8.00;99.90
837;DHT22;400;53.550;9.932;2023-03-01T16:34:36;7.90;99.90
837;DHT22;400;53.550;9.932;2023-03-01T16:37:08;7.80;99.90
837;DHT22;400;53.550;9.932;2023-03-01T16:39:38;7.80;99.90
837;DHT22;400;53.550;9.932;2023-03-01T16:42:07;7.80;99.90
837;DHT22;400;53.550;9.932;2023-03-01T16:44:36;7.80;99.90
837;DHT22;400;53.550;9.932;2023-03-01T16:47:04;7.80;99.90
837;DHT22;400;53.550;9.932;2023-03-01T16:49:31;7.70;99.90
837;DHT22;400;53.550;9.932;2023-03-01T16:51:58;7.70;99.90
837;DHT22;400;53.550;9.932;2023-03-01T16:54:27;7.70;99.90
837;DHT22;400;53.550;9.932;2023-03-01T16:56:57;7.60;99.90
837;DHT22;400;53.550;9.932;2023-03-01T16:59:25;7.60;99.90
837;DHT22;400;53.550;9.932;2023-03-01T17:01:53;7.60;99.90
837;DHT22;400;53.550;9.932;2023-03-01T17:04:22;7.60;99.90
837;DHT22;400;53.550;9.932;2023-03-01T17:06:49;7.50;99.90
837;DHT22;400;53.550;9.932;2023-03-01T17:09:16;7.50;99.90
837;DHT22;400;53.550;9.932;2023-03-01T17:11:43;7.50;99.90
837;DHT22;400;53.550;9.932;2023-03-01T17:14:10;7.50;99.90
837;DHT22;400;53.550;9.932;2023-03-01T17:16:37;7.40;99.90
837;DHT22;400;53.550;9.932;2023-03-01T17:19:05;7.30;99.90
837;DHT22;400;53.550;9.932;2023-03-01T17:21:36;7.30;99.90
837;DHT22;400;53.550;9.932;2023-03-01T17:24:03;7.30;99.90
837;DHT22;400;53.550;9.932;2023-03-01T17:26:31;7.30;99.90
837;DHT22;400;53.550;9.932;2023-03-01T17:29:03;7.30;99.90
837;DHT22;400;53.550;9.932;2023-03-01T17:31:34;7.20;99.90
837;DHT22;400;53.550;9.932;2023-03-01T17:34:02;7.20;99.90
837;DHT22;400;53.550;9.932;2023-03-01T17:36:37;7.20;99.90
837;DHT22;400;53.550;9.932;2023-03-01T17:39:10;7.10;99.90